Pagina principale
METAR-TAF:

METAR-TAF

Aeroporti :

Aeroporto di Budapest-Ferihegy

Budapest, Ungheria

latitudine: 47-26N, longitudine: 019-16E, altezza: 151 m

Osservazione

Il bollettino è stato emesso 21 minuti fa, alle 04:30 UTC
Vento calmo
Temperature 13°C
Umidità 94%
Pressione 1016 hPa
Visibilità 10 km o più
Nebbia poco profondo

METAR: LHBP 030430Z 00000KT 9999 MIFG NSC 13/12 Q1016 NOSIG

Ora: 06:51 (04:51 UTC)

Previsione

Il bollettino è stato emesso 5 ore e 36 minuti fa, alle 23:15 UTC
Previsione valida dal 03 alle 00 UTC al 03 alle 24 UTC
Vento 3 kt da direzioni variabili
Visibilità 10 km o più
nessuna nube inferiore a 1500 m e nessun cumulonembo
Temporaneamente
dal 03 alle 08 UTC al 03 alle 15 UTC
Nubi sparse ad un'altezza di 4000 ft

TAF: LHBP 022315Z 0300/0324 VRB03KT CAVOK TEMPO 0308/0315 SCT040

Osservazioni e previsioni meteorologiche di più di 4000 aeroporti (messaggi METAR e TAF).

Le stazioni disponibili sono rappresentate dai dischi gialli e rossi sulla carta.

Puntare il mouse per vedere il nome della stazione.

Clicca sopra per visualizzare le osservazioni e previsioni meteorologiche.

Per cambiare la mappa : fare clic sui pulsanti verdi con una croce nera per ingrandire, il pulsante verde con un trattino per diminuire, o sulla freccia verde per le mappe adiacenti.


METAR-TAF: